createdAt,value
2022-08-10T00:03:01.698Z,17.85
2022-08-10T00:08:05.385Z,17.81
2022-08-10T00:13:09.925Z,17.68
2022-08-10T00:18:12.777Z,17.64
2022-08-10T00:23:37.051Z,17.84
2022-08-10T00:28:41.243Z,17.84
2022-08-10T00:33:44.079Z,17.75
2022-08-10T00:38:46.873Z,17.66
2022-08-10T00:43:51.232Z,17.56
2022-08-10T00:49:00.716Z,17.59
2022-08-10T00:54:03.829Z,17.53
2022-08-10T00:59:08.213Z,17.42
2022-08-10T01:04:58.232Z,17.25
2022-08-10T01:09:44.625Z,17.22
2022-08-10T01:15:11.897Z,17.20
2022-08-10T01:20:30.023Z,17.18
2022-08-10T01:26:11.576Z,17.11
2022-08-10T01:31:27.861Z,16.94
2022-08-10T01:36:36.372Z,16.90
2022-08-10T01:41:46.782Z,16.97
2022-08-10T01:46:56.812Z,16.90
2022-08-10T01:52:02.256Z,16.99
2022-08-10T01:57:06.055Z,16.93
2022-08-10T02:02:12.920Z,16.81
2022-08-10T02:07:19.494Z,16.77
2022-08-10T02:12:26.889Z,16.75
2022-08-10T02:17:59.387Z,16.80
2022-08-10T02:23:03.355Z,16.73
2022-08-10T02:28:08.293Z,16.68
2022-08-10T02:33:14.471Z,16.77
2022-08-10T02:38:59.006Z,16.71
2022-08-10T02:45:27.431Z,16.73
2022-08-10T02:54:43.168Z,16.57
2022-08-10T02:59:49.249Z,16.56
2022-08-10T03:04:58.461Z,16.52
2022-08-10T03:10:04.533Z,16.38
2022-08-10T03:15:19.582Z,16.27
2022-08-10T03:20:37.310Z,16.23
2022-08-10T03:25:53.286Z,16.30
2022-08-10T03:30:59.581Z,16.37
2022-08-10T03:36:43.507Z,16.48
2022-08-10T03:41:35.643Z,16.43
2022-08-10T03:46:42.623Z,16.39
2022-08-10T03:51:49.302Z,16.37
2022-08-10T03:56:52.515Z,16.41
2022-08-10T04:02:45.242Z,16.46
2022-08-10T04:07:20.585Z,16.58
2022-08-10T04:12:23.638Z,16.51
2022-08-10T04:18:02.854Z,16.54
2022-08-10T04:22:54.273Z,16.52
2022-08-10T04:27:57.624Z,16.73
2022-08-10T04:33:03.170Z,16.70
2022-08-10T04:38:09.449Z,16.68
2022-08-10T04:43:13.463Z,16.81
2022-08-10T04:48:43.135Z,16.78
2022-08-10T04:54:03.956Z,16.89
2022-08-10T04:59:03.978Z,16.90
2022-08-10T05:04:36.255Z,17.03
2022-08-10T05:09:31.273Z,17.10
2022-08-10T05:14:34.352Z,17.16
2022-08-10T05:20:01.799Z,17.24
2022-08-10T05:25:01.824Z,17.49
2022-08-10T05:30:07.036Z,17.61
2022-08-10T05:35:10.389Z,17.85
2022-08-10T05:40:15.136Z,18.02
2022-08-10T05:45:22.235Z,18.19
2022-08-10T05:50:27.743Z,18.52
2022-08-10T05:55:32.578Z,18.60
2022-08-10T06:00:45.935Z,19.03
2022-08-10T06:05:55.738Z,19.24
2022-08-10T06:12:24.659Z,19.73
2022-08-10T06:16:26.714Z,19.86
2022-08-10T06:21:29.913Z,19.98
2022-08-10T06:26:34.513Z,20.21
2022-08-10T06:31:48.984Z,20.46
2022-08-10T06:36:54.064Z,20.92
2022-08-10T06:42:15.408Z,21.16
2022-08-10T06:47:24.524Z,21.96
2022-08-10T06:52:29.755Z,23.67
2022-08-10T06:57:35.626Z,25.39
2022-08-10T07:02:45.270Z,29.06
2022-08-10T07:07:50.884Z,30.61
2022-08-10T07:12:59.545Z,34.44
2022-08-10T07:18:04.087Z,34.63
2022-08-10T07:23:57.855Z,35.74
2022-08-10T07:28:34.704Z,37.16
2022-08-10T07:33:39.967Z,38.57
2022-08-10T07:38:44.683Z,39.05
2022-08-10T07:43:50.632Z,37.81
2022-08-10T07:49:19.270Z,38.71
2022-08-10T07:54:24.675Z,38.27
2022-08-10T07:59:37.766Z,38.34
2022-08-10T08:04:40.916Z,36.20
2022-08-10T08:09:57.043Z,35.92
2022-08-10T08:16:14.542Z,34.80
2022-08-10T08:20:31.485Z,32.55
2022-08-10T08:25:35.663Z,29.71
2022-08-10T08:30:44.560Z,26.69
2022-08-10T08:35:51.981Z,25.51
2022-08-10T08:41:04.073Z,24.97
2022-08-10T08:46:59.365Z,24.64
2022-08-10T08:52:18.580Z,24.49
2022-08-10T08:57:50.183Z,24.79
2022-08-10T09:03:27.545Z,24.96
2022-08-10T09:08:58.536Z,24.76
2022-08-10T09:14:07.691Z,24.80
2022-08-10T09:19:31.847Z,24.45
2022-08-10T09:24:51.139Z,24.93
2022-08-10T09:29:57.158Z,25.17
2022-08-10T09:36:25.754Z,25.28
2022-08-10T09:41:02.257Z,25.15
2022-08-10T09:46:15.131Z,25.10
2022-08-10T09:51:45.527Z,25.22
2022-08-10T09:57:06.970Z,25.19
2022-08-10T10:02:27.439Z,25.27
2022-08-10T10:07:32.430Z,25.23
2022-08-10T10:12:45.816Z,25.56
2022-08-10T10:18:05.040Z,25.32
2022-08-10T10:23:17.385Z,25.21
2022-08-10T10:29:06.922Z,25.33
2022-08-10T10:34:16.746Z,25.20
2022-08-10T10:39:25.554Z,25.30
2022-08-10T10:44:42.284Z,25.30
2022-08-10T10:49:53.500Z,25.50
2022-08-10T10:55:10.080Z,25.50
2022-08-10T11:00:14.145Z,25.97
2022-08-10T11:05:24.388Z,25.34
2022-08-10T11:10:34.776Z,25.38
2022-08-10T11:15:47.590Z,25.62
2022-08-10T11:21:02.792Z,25.51
2022-08-10T11:26:12.979Z,25.55
2022-08-10T11:31:25.999Z,25.61
2022-08-10T11:36:38.017Z,25.91
2022-08-10T11:42:11.751Z,25.77
2022-08-10T11:47:19.829Z,25.79
2022-08-10T11:52:35.333Z,25.49
2022-08-10T11:57:53.773Z,25.73
2022-08-10T12:03:03.000Z,25.76
2022-08-10T12:10:02.676Z,25.84
2022-08-10T12:13:38.595Z,25.99
2022-08-10T12:18:48.019Z,26.13
2022-08-10T12:24:02.918Z,26.34
2022-08-10T12:29:14.239Z,26.45
2022-08-10T12:34:24.124Z,26.43
2022-08-10T12:39:31.188Z,26.67
2022-08-10T12:44:43.891Z,26.43
2022-08-10T12:50:30.183Z,26.61
2022-08-10T12:55:19.024Z,26.56
2022-08-10T13:00:30.051Z,26.31
2022-08-10T13:06:02.100Z,26.39
2022-08-10T13:11:02.893Z,26.64
2022-08-10T13:16:08.500Z,26.80
2022-08-10T13:21:19.732Z,26.69
2022-08-10T13:26:27.373Z,26.66
2022-08-10T13:32:04.037Z,26.55
2022-08-10T13:37:01.785Z,26.52
2022-08-10T13:42:08.267Z,26.48
2022-08-10T13:47:14.942Z,26.40
2022-08-10T13:52:22.635Z,26.54
2022-08-10T13:57:28.981Z,26.64
2022-08-10T14:02:35.770Z,26.51
2022-08-10T14:08:00.112Z,26.73
2022-08-10T14:13:06.289Z,26.58
2022-08-10T14:18:10.942Z,26.76
2022-08-10T14:23:15.304Z,26.88
2022-08-10T14:28:32.711Z,26.98
2022-08-10T14:33:37.997Z,26.75
2022-08-10T14:38:44.965Z,26.79
2022-08-10T14:43:55.278Z,26.73
2022-08-10T14:49:01.186Z,26.69
2022-08-10T14:54:29.871Z,26.61
2022-08-10T15:00:24.188Z,26.69
2022-08-10T15:04:58.565Z,26.61
2022-08-10T15:10:04.049Z,26.67
2022-08-10T15:15:10.527Z,26.75
2022-08-10T15:20:20.738Z,26.76
2022-08-10T15:25:26.811Z,26.70
2022-08-10T15:30:33.326Z,26.66
2022-08-10T15:35:56.871Z,26.67
2022-08-10T15:41:01.654Z,26.66
2022-08-10T15:46:15.700Z,26.84
2022-08-10T15:51:28.079Z,26.64
2022-08-10T15:56:41.155Z,26.66
2022-08-10T16:02:14.009Z,26.64
2022-08-10T16:07:17.761Z,26.67
2022-08-10T16:12:29.428Z,26.61
2022-08-10T16:17:54.689Z,26.57
2022-08-10T16:23:04.905Z,26.56
2022-08-10T16:28:09.971Z,26.46
2022-08-10T16:33:27.578Z,26.50
2022-08-10T16:38:52.716Z,26.47
2022-08-10T16:43:58.208Z,26.37
2022-08-10T16:49:02.635Z,26.45
2022-08-10T16:54:12.398Z,26.37
2022-08-10T16:59:17.757Z,26.43
2022-08-10T17:04:25.202Z,26.37
2022-08-10T17:09:32.972Z,26.33
2022-08-10T17:14:39.548Z,26.13
2022-08-10T17:19:45.403Z,26.22
2022-08-10T17:24:56.169Z,26.12
2022-08-10T17:30:04.880Z,25.97
2022-08-10T17:35:18.566Z,26.07
2022-08-10T17:40:28.578Z,25.99
2022-08-10T17:45:48.341Z,25.99
2022-08-10T17:50:55.071Z,25.99
2022-08-10T17:56:01.197Z,25.81
2022-08-10T18:01:38.105Z,25.74
2022-08-10T18:06:31.213Z,25.83
2022-08-10T18:11:41.567Z,25.59
2022-08-10T18:16:46.602Z,25.54
2022-08-10T18:21:51.491Z,25.51
2022-08-10T18:26:57.739Z,25.44
2022-08-10T18:32:02.780Z,25.32
2022-08-10T18:37:08.919Z,25.25
2022-08-10T18:42:17.697Z,24.99
2022-08-10T18:47:33.983Z,24.87
2022-08-10T18:52:39.369Z,24.73
2022-08-10T18:57:58.755Z,24.58
2022-08-10T19:03:28.370Z,24.37
2022-08-10T19:08:50.336Z,24.20
2022-08-10T19:14:01.465Z,24.15
2022-08-10T19:19:22.149Z,23.95
2022-08-10T19:24:33.921Z,23.89
2022-08-10T19:30:12.078Z,23.77
2022-08-10T19:35:23.454Z,23.54
2022-08-10T19:40:44.552Z,23.61
2022-08-10T19:46:03.232Z,23.49
2022-08-10T19:51:15.019Z,23.44
2022-08-10T19:56:34.034Z,23.38
2022-08-10T20:01:55.467Z,23.10
2022-08-10T20:07:09.835Z,22.98
2022-08-10T20:12:24.212Z,22.93
2022-08-10T20:17:51.032Z,22.76
2022-08-10T20:23:05.915Z,22.61
2022-08-10T20:28:19.655Z,22.69
2022-08-10T20:33:32.955Z,22.64
2022-08-10T20:38:43.495Z,22.41
2022-08-10T20:43:57.431Z,22.25
2022-08-10T20:49:12.069Z,22.17
2022-08-10T20:54:17.322Z,22.08
2022-08-10T21:00:04.717Z,21.97
2022-08-10T21:05:13.348Z,21.79
2022-08-10T21:10:26.751Z,21.77
2022-08-10T21:15:50.839Z,21.73
2022-08-10T21:21:16.645Z,21.61
2022-08-10T21:26:29.552Z,21.45
2022-08-10T21:31:48.178Z,21.29
2022-08-10T21:37:18.696Z,21.17
2022-08-10T21:42:53.739Z,21.15
2022-08-10T21:48:30.303Z,21.18
2022-08-10T21:53:56.823Z,21.37
2022-08-10T21:59:22.078Z,21.36
2022-08-10T22:04:44.707Z,21.35
2022-08-10T22:10:10.887Z,21.29
2022-08-10T22:16:03.638Z,21.22
2022-08-10T22:21:27.062Z,21.18
2022-08-10T22:27:47.149Z,21.15
2022-08-10T22:33:01.308Z,20.99
2022-08-10T22:38:34.035Z,20.98
2022-08-10T22:43:57.099Z,20.87
2022-08-10T22:49:01.836Z,20.70
2022-08-10T22:54:31.808Z,20.72
2022-08-10T22:59:36.352Z,20.57
2022-08-10T23:04:45.634Z,20.73
2022-08-10T23:09:56.978Z,20.75
2022-08-10T23:15:20.535Z,20.76
2022-08-10T23:20:41.280Z,20.65
2022-08-10T23:25:57.154Z,20.60
2022-08-10T23:31:04.028Z,20.57
2022-08-10T23:36:34.085Z,20.47
2022-08-10T23:41:34.408Z,20.48
2022-08-10T23:46:42.445Z,20.44
2022-08-10T23:51:55.396Z,20.39
2022-08-10T23:57:01.883Z,20.32
